Terminal Aerodrome Forecast
Issued by NWS

Home | Current Version | Previous Version | Text Only | Print | Product List | Glossary On
Versions: 1 2 3 4 5 6 7 8 9 10 11 12 13 14 15 16 17 18 19
000
FTUS42 TJSJ 261100
TAFJSJ
TAF
TJSJ 261133Z 2612/2712 11010KT P6SM VCSH FEW025 SCT030 SCT060
     FM261430 08014G24KT P6SM VCSH FEW025 SCT050
     FM262200 09006KT P6SM FEW030=

USA.gov is the U.S. government's official web portal to all federal, state and local government web resources and services.